Time;durP1;ratioP1;P1;durP2;ratioP2;P2;SDS_P1;SDS_P2;PMS_P1;PMS_P2;Temp;Humidity;BMP_temperature;BMP_pressure;BME280_temperature;BME280_humidity;BME280_pressure;Samples;Min_cycle;Max_cycle;Signal;HPM_P1;HPM_P2
2023/04/04 00:01:16;;;;;;;9.13;2.60;;;;;;;3.83;100.00;102949.69;5082633;28;20123;-80
2023/04/04 00:03:41;;;;;;;4.43;2.05;;;;;;;3.84;100.00;102947.88;5083195;28;20043;-81
2023/04/04 00:06:07;;;;;;;4.70;2.38;;;;;;;3.78;100.00;102950.88;5091410;28;20039;-79
2023/04/04 00:08:32;;;;;;;5.63;2.85;;;;;;;3.73;100.00;102952.00;5103180;28;20069;-79
2023/04/04 00:10:58;;;;;;;3.35;1.90;;;;;;;3.80;100.00;102941.88;5103049;28;20013;-80
2023/04/04 00:13:25;;;;;;;5.47;2.40;;;;;;;3.86;100.00;102946.00;5093320;28;20025;-82
2023/04/04 00:15:51;;;;;;;4.68;2.10;;;;;;;3.80;100.00;102951.66;5080114;28;20020;-79
2023/04/04 00:18:16;;;;;;;6.85;2.20;;;;;;;3.79;100.00;102948.16;5078982;28;20032;-80
2023/04/04 00:20:41;;;;;;;5.45;2.30;;;;;;;3.77;100.00;102946.53;5078776;28;20024;-80
2023/04/04 00:23:09;;;;;;;3.92;2.00;;;;;;;3.66;100.00;102937.31;5080042;28;20032;-81
2023/04/04 00:25:35;;;;;;;;;;;;;;;3.67;100.00;102932.84;5079875;28;20021;-79
2023/04/04 00:28:00;;;;;;;5.40;2.30;;;;;;;3.59;100.00;102937.75;5068381;28;19916;-82
2023/04/04 00:30:27;;;;;;;5.43;2.60;;;;;;;3.55;100.00;102938.84;5058814;28;20049;-80
2023/04/04 00:32:53;;;;;;;4.00;2.22;;;;;;;3.48;100.00;102930.34;5060283;28;20078;-80
2023/04/04 00:35:18;;;;;;;5.72;2.53;;;;;;;3.51;100.00;102935.50;5061109;28;20025;-81
2023/04/04 00:37:43;;;;;;;4.30;2.50;;;;;;;3.47;100.00;102933.94;5078389;28;20028;-80
2023/04/04 00:40:09;;;;;;;6.07;2.40;;;;;;;3.45;100.00;102935.81;5069181;28;20063;-81
2023/04/04 00:42:34;;;;;;;5.90;2.40;;;;;;;3.44;100.00;102932.31;5075118;28;20037;-79
2023/04/04 00:45:00;;;;;;;3.55;2.47;;;;;;;3.38;100.00;102926.47;5089879;28;20024;-78
2023/04/04 00:47:28;;;;;;;3.35;2.30;;;;;;;3.30;100.00;102937.53;5080391;28;20036;-79
2023/04/04 00:49:54;;;;;;;5.60;2.17;;;;;;;3.33;100.00;102936.50;5079392;28;20514;-80
2023/04/04 00:52:19;;;;;;;6.57;3.03;;;;;;;3.25;100.00;102934.25;5078665;28;20029;-80
2023/04/04 00:54:45;;;;;;;4.72;2.30;;;;;;;3.26;100.00;102936.81;5079044;28;20028;-81
2023/04/04 00:57:10;;;;;;;4.35;2.35;;;;;;;3.24;100.00;102938.72;5078500;28;20046;-82
2023/04/04 00:59:36;;;;;;;6.93;2.50;;;;;;;3.24;100.00;102944.06;5077033;28;20036;-82
2023/04/04 01:02:01;;;;;;;4.63;2.42;;;;;;;3.20;100.00;102939.81;5074106;28;20033;-81
2023/04/04 01:04:30;;;;;;;8.05;2.90;;;;;;;3.18;100.00;102930.19;5058307;28;20048;-80
2023/04/04 01:06:55;;;;;;;4.75;2.30;;;;;;;3.15;100.00;102923.25;5076480;28;20032;-80
2023/04/04 01:09:27;;;;;;;4.97;2.28;;;;;;;3.17;100.00;102926.69;5077845;28;20028;-79
2023/04/04 01:11:54;;;;;;;6.65;2.60;;;;;;;3.09;100.00;102923.59;5078400;28;20048;-82
2023/04/04 01:14:20;;;;;;;7.65;2.60;;;;;;;3.07;100.00;102909.50;5078616;28;20032;-80
2023/04/04 01:16:47;;;;;;;5.70;2.42;;;;;;;3.06;100.00;102918.44;5078053;28;20033;-81
2023/04/04 01:19:18;;;;;;;5.55;2.78;;;;;;;3.03;100.00;102910.63;5078272;28;20102;-81
2023/04/04 01:21:45;;;;;;;3.85;2.50;;;;;;;3.00;100.00;102918.75;5077316;28;20091;-81
2023/04/04 01:24:12;;;;;;;7.78;2.65;;;;;;;2.93;100.00;102917.38;5059572;28;20021;-79
2023/04/04 01:26:38;;;;;;;4.60;2.55;;;;;;;2.88;100.00;102903.44;5058182;28;20021;-80
2023/04/04 01:29:03;;;;;;;3.08;2.28;;;;;;;2.88;100.00;102919.41;5071143;28;20059;-81
2023/04/04 01:31:41;;;;;;;3.42;2.05;;;;;;;2.86;100.00;102912.34;5079902;28;20094;-81
2023/04/04 01:34:22;;;;;;;6.05;2.42;;;;;;;2.80;100.00;102911.84;5081454;28;20358;-81
2023/04/04 01:37:03;;;;;;;4.82;3.08;;;;;;;2.85;100.00;102915.97;5087842;28;20032;-81
2023/04/04 01:39:42;;;;;;;4.70;2.50;;;;;;;2.86;100.00;102912.34;5088779;28;20032;-81
2023/04/04 01:42:08;;;;;;;4.00;2.22;;;;;;;2.81;100.00;102913.53;5088293;28;20052;-81
2023/04/04 01:44:35;;;;;;;5.57;2.42;;;;;;;2.83;100.00;102917.84;5090015;28;20142;-81
2023/04/04 01:47:02;;;;;;;4.35;2.35;;;;;;;2.75;100.00;102914.72;5089121;28;20047;-81
2023/04/04 01:49:27;;;;;;;5.63;2.55;;;;;;;2.67;100.00;102930.22;5091116;28;20027;-82
2023/04/04 01:51:53;;;;;;;6.43;2.63;;;;;;;2.67;100.00;102926.69;5088452;28;20179;-81
2023/04/04 01:54:19;;;;;;;4.97;2.45;;;;;;;2.66;100.00;102925.84;5086460;28;20049;-81
2023/04/04 01:56:45;;;;;;;9.75;2.72;;;;;;;2.69;100.00;102930.16;5080798;28;20033;-80
2023/04/04 01:59:10;;;;;;;4.65;2.58;;;;;;;2.62;100.00;102924.28;5080851;28;20021;-80
2023/04/04 02:01:37;;;;;;;7.50;3.13;;;;;;;2.63;100.00;102924.22;5079404;28;20025;-81
2023/04/04 02:04:03;;;;;;;9.18;2.75;;;;;;;2.65;100.00;102929.44;5079814;28;20036;-80
2023/04/04 02:06:29;;;;;;;4.10;2.90;;;;;;;2.62;100.00;102932.25;5071754;28;20021;-81
2023/04/04 02:08:55;;;;;;;6.03;2.63;;;;;;;2.61;100.00;102933.19;5070566;28;20058;-81
2023/04/04 02:11:21;;;;;;;6.90;2.50;;;;;;;2.59;100.00;102925.28;5090477;28;20076;-79
2023/04/04 02:13:50;;;;;;;3.72;2.42;;;;;;;2.58;100.00;102926.25;5109009;28;20046;-79
2023/04/04 02:16:15;;;;;;;4.47;2.53;;;;;;;2.54;100.00;102931.78;5105393;28;20033;-80
2023/04/04 02:18:41;;;;;;;6.72;2.97;;;;;;;2.52;100.00;102933.66;5098138;28;20028;-80
2023/04/04 02:21:06;;;;;;;8.35;2.67;;;;;;;2.51;100.00;102930.16;5110622;28;20028;-79
2023/04/04 02:23:32;;;;;;;4.78;2.72;;;;;;;2.48;100.00;102929.44;5111358;28;20083;-80
2023/04/04 02:25:57;;;;;;;6.43;2.38;;;;;;;2.41;100.00;102935.06;5108804;28;20034;-78
2023/04/04 02:28:23;;;;;;;4.28;2.22;;;;;;;2.41;100.00;102935.06;5085428;28;20075;-79
2023/04/04 02:30:48;;;;;;;5.93;2.60;;;;;;;2.42;100.00;102939.47;5083339;28;20024;-79
2023/04/04 02:33:13;;;;;;;8.55;2.85;;;;;;;2.39;100.00;102934.25;5079432;28;20016;-78
2023/04/04 02:35:39;;;;;;;3.13;2.42;;;;;;;2.30;100.00;102916.16;5081624;28;20029;-78
2023/04/04 02:38:04;;;;;;;8.57;3.45;;;;;;;2.28;100.00;102925.13;5083618;28;20524;-79
2023/04/04 02:40:29;;;;;;;4.68;2.55;;;;;;;2.26;100.00;102919.03;5079719;28;20358;-79
2023/04/04 02:42:55;;;;;;;6.32;2.97;;;;;;;2.27;100.00;102924.28;5080687;28;20420;-80
2023/04/04 02:45:21;;;;;;;4.32;2.42;;;;;;;2.23;100.00;102928.00;5079699;28;20078;-78
2023/04/04 02:47:50;;;;;;;3.67;2.33;;;;;;;2.20;100.00;102915.72;5092186;28;20503;-79
2023/04/04 02:50:16;;;;;;;4.80;2.75;;;;;;;2.18;100.00;102919.41;5080321;28;20553;-80
2023/04/04 02:52:41;;;;;;;5.30;2.42;;;;;;;2.10;100.00;102913.63;5076379;28;20029;-79
2023/04/04 02:55:07;;;;;;;8.57;3.50;;;;;;;2.07;100.00;102905.81;5077428;28;20024;-80
2023/04/04 02:57:33;;;;;;;6.50;2.70;;;;;;;2.06;100.00;102904.94;5088874;28;20380;-80
2023/04/04 02:59:58;;;;;;;4.35;2.38;;;;;;;2.02;100.00;102902.50;5096284;28;20103;-81
2023/04/04 03:02:25;;;;;;;5.28;2.60;;;;;;;2.05;100.00;102910.31;5078288;28;20074;-80
2023/04/04 03:04:50;;;;;;;4.60;2.90;;;;;;;2.00;100.00;102907.88;5093494;28;20024;-78
2023/04/04 03:07:16;;;;;;;4.90;2.63;;;;;;;1.98;100.00;102901.81;5074669;28;20042;-81
2023/04/04 03:09:43;;;;;;;6.13;2.90;;;;;;;1.91;100.00;102911.00;5064799;28;20039;-79
2023/04/04 03:12:09;;;;;;;5.00;3.08;;;;;;;1.85;100.00;102908.66;5079057;28;20043;-79
2023/04/04 03:14:35;;;;;;;3.13;2.42;;;;;;;1.78;100.00;102910.75;5079689;28;20381;-79
2023/04/04 03:17:00;;;;;;;7.25;2.47;;;;;;;1.80;100.00;102918.66;5059912;28;20464;-78
2023/04/04 03:19:25;;;;;;;8.32;3.55;;;;;;;1.77;100.00;102922.31;5072419;28;20037;-79
2023/04/04 03:21:51;;;;;;;5.07;2.90;;;;;;;1.79;100.00;102916.91;5076054;28;20097;-79
2023/04/04 03:24:16;;;;;;;5.53;2.78;;;;;;;1.71;100.00;102914.63;5067249;28;20052;-79
2023/04/04 03:26:41;;;;;;;4.72;2.80;;;;;;;1.71;100.00;102917.25;5080478;28;20466;-79
2023/04/04 03:29:07;;;;;;;4.85;3.10;;;;;;;1.69;100.00;102921.81;5075760;28;20025;-79
2023/04/04 03:31:32;;;;;;;4.88;3.05;;;;;;;1.66;100.00;102919.28;5081997;28;20032;-79
2023/04/04 03:33:59;;;;;;;4.35;3.00;;;;;;;1.64;100.00;102918.50;5082052;28;20052;-81
2023/04/04 03:36:25;;;;;;;7.55;3.28;;;;;;;1.63;100.00;102927.41;5071092;28;20108;-81
2023/04/04 03:38:50;;;;;;;6.97;3.22;;;;;;;1.63;100.00;102933.56;5079502;28;20060;-81
2023/04/04 03:41:16;;;;;;;11.15;3.65;;;;;;;1.58;100.00;102935.59;5079165;28;20021;-80
2023/04/04 03:43:41;;;;;;;8.63;3.45;;;;;;;1.62;100.00;102925.69;5078646;28;20100;-80
2023/04/04 03:46:07;;;;;;;5.10;2.92;;;;;;;1.59;100.00;102920.53;5078717;28;20608;-80
2023/04/04 03:48:33;;;;;;;5.05;3.13;;;;;;;1.58;100.00;102924.97;5078956;28;20032;-80
2023/04/04 03:50:58;;;;;;;6.65;3.08;;;;;;;1.60;100.00;102923.09;5079516;28;20047;-81
2023/04/04 03:53:27;;;;;;;11.93;3.53;;;;;;;1.54;100.00;102918.94;5078849;28;20533;-81
2023/04/04 03:55:54;;;;;;;7.28;2.72;;;;;;;1.50;100.00;102917.38;5062772;28;20025;-81
2023/04/04 03:58:20;;;;;;;5.57;3.13;;;;;;;1.50;100.00;102914.72;5059323;28;20108;-80
2023/04/04 04:00:45;;;;;;;5.93;3.45;;;;;;;1.46;100.00;102915.78;5058505;28;20053;-80
2023/04/04 04:03:11;;;;;;;8.88;3.40;;;;;;;1.44;100.00;102911.47;5070858;28;20029;-82
2023/04/04 04:05:36;;;;;;;4.90;3.03;;;;;;;1.41;100.00;102923.09;5076155;28;20063;-82
2023/04/04 04:08:01;;;;;;;5.82;3.13;;;;;;;1.40;100.00;102921.38;5078023;28;20100;-80
2023/04/04 04:10:27;;;;;;;5.07;2.90;;;;;;;1.41;100.00;102923.09;5077968;28;20461;-81
2023/04/04 04:12:52;;;;;;;9.55;3.50;;;;;;;1.41;100.00;102925.75;5078296;28;20093;-80
2023/04/04 04:15:17;;;;;;;6.55;3.13;;;;;;;1.40;100.00;102918.72;5072142;28;20116;-80
2023/04/04 04:17:43;;;;;;;9.07;3.47;;;;;;;1.42;100.00;102921.28;5060871;28;20024;-80
2023/04/04 04:20:09;;;;;;;7.40;3.28;;;;;;;1.41;100.00;102920.44;5084714;28;20050;-80
2023/04/04 04:22:35;;;;;;;12.98;4.07;;;;;;;1.40;100.00;102921.38;5078093;28;20052;-80
2023/04/04 04:25:00;;;;;;;6.93;3.35;;;;;;;1.41;100.00;102923.09;5078533;28;20504;-79
2023/04/04 04:27:26;;;;;;;8.10;3.78;;;;;;;1.36;100.00;102914.50;5078312;28;20067;-82
2023/04/04 04:29:51;;;;;;;4.22;2.95;;;;;;;1.34;100.00;102919.00;5078319;28;20029;-81
2023/04/04 04:32:17;;;;;;;15.40;3.75;;;;;;;1.31;100.00;102927.97;5078650;28;20071;-81
2023/04/04 04:34:42;;;;;;;5.90;3.70;;;;;;;1.31;100.00;102927.97;5073003;28;20028;-81
2023/04/04 04:37:08;;;;;;;11.68;4.05;;;;;;;1.29;100.00;102929.84;5074842;28;20032;-80
2023/04/04 04:39:34;;;;;;;8.05;3.80;;;;;;;1.26;100.00;102923.78;5068372;28;20056;-81
2023/04/04 04:41:59;;;;;;;7.57;3.80;;;;;;;1.27;100.00;102933.50;5073966;28;20032;-81
2023/04/04 04:44:25;;;;;;;12.90;4.20;;;;;;;1.28;100.00;102922.78;5064663;28;20061;-81
2023/04/04 04:46:51;;;;;;;6.00;4.10;;;;;;;1.23;100.00;102923.94;5057247;28;20040;-79
2023/04/04 04:49:16;;;;;;;9.70;4.50;;;;;;;1.20;100.00;102924.94;5064822;28;20033;-80
2023/04/04 04:51:42;;;;;;;8.27;3.65;;;;;;;1.19;100.00;102935.63;5059820;28;20039;-81
2023/04/04 04:54:07;;;;;;;7.30;3.85;;;;;;;1.19;100.00;102927.69;5076500;28;20048;-80
2023/04/04 04:56:32;;;;;;;7.38;3.83;;;;;;;1.17;100.00;102919.78;5096371;28;20031;-81
2023/04/04 04:58:58;;;;;;;7.05;3.75;;;;;;;1.17;100.00;102924.22;5083566;28;20056;-79
2023/04/04 05:01:23;;;;;;;8.18;3.75;;;;;;;1.10;100.00;102924.50;5057962;28;20083;-81
2023/04/04 05:03:49;;;;;;;10.05;4.07;;;;;;;1.07;100.00;102924.63;5066395;28;20028;-81
2023/04/04 05:06:14;;;;;;;6.43;4.07;;;;;;;1.08;100.00;102936.13;5071624;28;20055;-80
2023/04/04 05:08:40;;;;;;;6.95;4.25;;;;;;;1.08;100.00;102931.69;5075585;28;20028;-81
2023/04/04 05:11:05;;;;;;;8.43;4.30;;;;;;;1.06;100.00;102944.13;5061359;28;20072;-81
2023/04/04 05:13:31;;;;;;;7.07;4.35;;;;;;;1.06;100.00;102943.28;5058958;28;20021;-80
2023/04/04 05:15:57;;;;;;;10.73;4.85;;;;;;;1.06;100.00;102957.41;5057560;28;20464;-81
2023/04/04 05:18:22;;;;;;;12.75;4.80;;;;;;;1.08;100.00;102960.00;5056359;28;20024;-83
2023/04/04 05:20:55;;;;;;;6.78;3.80;;;;;;;1.12;100.00;102952.75;5060663;28;20028;-81
2023/04/04 05:23:21;;;;;;;10.13;4.20;;;;;;;1.16;100.00;102944.59;5065507;28;20024;-82
2023/04/04 05:25:50;;;;;;;10.18;4.43;;;;;;;1.19;100.00;102947.09;5077148;28;20114;-80
2023/04/04 05:28:16;;;;;;;7.47;4.13;;;;;;;1.22;100.00;102948.75;5076567;28;20134;-79
2023/04/04 05:30:41;;;;;;;5.75;3.90;;;;;;;1.24;100.00;102946.91;5076994;28;20024;-80
2023/04/04 05:33:06;;;;;;;10.23;5.03;;;;;;;1.24;100.00;102944.25;5090833;28;20036;-81
2023/04/04 05:35:32;;;;;;;8.50;4.57;;;;;;;1.29;100.00;102953.72;5083763;28;20020;-79
2023/04/04 05:37:57;;;;;;;7.78;3.92;;;;;;;1.32;100.00;102950.06;5084378;28;20035;-82
2023/04/04 05:40:22;;;;;;;12.02;4.35;;;;;;;1.37;100.00;102958.69;5084387;28;20378;-82
2023/04/04 05:42:58;;;;;;;9.02;4.28;;;;;;;1.40;100.00;102953.22;5084063;28;20070;-81
2023/04/04 05:45:24;;;;;;;12.55;4.72;;;;;;;1.50;100.00;102949.22;5082163;28;20040;-79
2023/04/04 05:47:50;;;;;;;8.88;4.43;;;;;;;2.00;100.00;102953.03;5080471;28;20021;-83
2023/04/04 05:50:15;;;;;;;9.98;4.55;;;;;;;2.76;100.00;102947.47;5081515;28;20038;-80
2023/04/04 05:52:40;;;;;;;8.02;4.55;;;;;;;3.67;100.00;102956.81;5078171;28;20107;-80
2023/04/04 05:55:06;;;;;;;10.18;4.90;;;;;;;4.53;100.00;102947.44;5076938;28;20028;-80
2023/04/04 05:57:32;;;;;;;8.80;4.25;;;;;;;5.34;100.00;102948.75;5077537;28;20035;-80
2023/04/04 05:59:58;;;;;;;7.57;4.20;;;;;;;6.17;100.00;102938.13;5074948;28;20029;-80
2023/04/04 06:02:23;;;;;;;9.35;4.57;;;;;;;6.64;100.00;102944.78;5055856;28;20027;-78
2023/04/04 06:04:49;;;;;;;6.10;4.07;;;;;;;6.72;100.00;102934.41;5055352;28;20152;-80
2023/04/04 06:07:15;;;;;;;10.02;5.03;;;;;;;6.26;100.00;102927.66;5055378;28;20021;-80
2023/04/04 06:09:40;;;;;;;14.05;4.57;;;;;;;6.10;100.00;102929.63;5064282;28;20024;-80
2023/04/04 06:12:06;;;;;;;6.63;4.00;;;;;;;6.30;100.00;102925.66;5059157;28;20025;-80
2023/04/04 06:14:31;;;;;;;9.95;4.53;;;;;;;6.39;100.00;102933.03;5057917;28;20032;-84
2023/04/04 06:16:57;;;;;;;11.05;5.13;;;;;;;6.35;98.95;102937.75;5073521;28;20036;-80
2023/04/04 06:19:22;;;;;;;7.95;4.28;;;;;;;6.31;97.68;102930.03;5078877;28;20667;-81
2023/04/04 06:21:47;;;;;;;9.93;5.32;;;;;;;6.01;97.51;102922.25;5079485;28;20056;-80
2023/04/04 06:24:13;;;;;;;11.10;4.40;;;;;;;5.66;100.00;102933.34;5078008;28;20032;-80
2023/04/04 06:26:38;;;;;;;10.40;4.93;;;;;;;5.64;100.00;102935.28;5077220;28;20455;-80
2023/04/04 06:29:03;;;;;;;9.35;4.70;;;;;;;5.45;100.00;102936.47;5081981;28;20059;-81
2023/04/04 06:31:29;;;;;;;10.75;4.38;;;;;;;5.68;100.00;102931.44;5078424;28;20028;-80
2023/04/04 06:33:55;;;;;;;10.68;4.78;;;;;;;5.64;100.00;102935.28;5081535;28;20103;-80
2023/04/04 06:36:20;;;;;;;7.65;4.05;;;;;;;5.78;98.88;102935.25;5081924;28;20043;-81
2023/04/04 06:38:45;;;;;;;10.73;4.20;;;;;;;5.65;98.39;102926.31;5084803;28;20053;-81
2023/04/04 06:41:11;;;;;;;6.82;4.30;;;;;;;5.48;98.58;102930.91;5081677;28;20028;-80
2023/04/04 06:43:36;;;;;;;9.98;3.95;;;;;;;5.35;99.14;102929.97;5081138;28;20318;-80
2023/04/04 06:46:02;;;;;;;10.23;4.60;;;;;;;5.28;100.00;102923.31;5077869;28;20024;-80
2023/04/04 06:48:27;;;;;;;10.20;4.60;;;;;;;5.22;100.00;102923.69;5076871;28;20021;-79
2023/04/04 06:50:52;;;;;;;6.80;4.15;;;;;;;5.64;100.00;102919.25;5076761;28;20410;-80
2023/04/04 06:53:18;;;;;;;12.10;4.18;;;;;;;6.15;100.00;102935.53;5077213;28;20111;-80
2023/04/04 06:55:43;;;;;;;9.57;4.05;;;;;;;7.09;94.20;102927.34;5069150;28;20025;-81
2023/04/04 06:58:09;;;;;;;13.23;4.57;;;;;;;8.67;85.26;102934.50;5064447;28;20061;-79
2023/04/04 07:00:34;;;;;;;14.38;3.88;;;;;;;9.28;78.60;102933.34;5078537;28;20048;-79
2023/04/04 07:03:00;;;;;;;15.30;4.78;;;;;;;9.53;75.28;102932.22;5083105;28;20380;-79
2023/04/04 07:05:26;;;;;;;10.55;3.90;;;;;;;10.67;70.38;102946.09;5083001;28;20139;-81
2023/04/04 07:07:55;;;;;;;11.52;4.38;;;;;;;12.77;60.34;102936.28;5080145;28;20021;-81
2023/04/04 07:10:22;;;;;;;7.22;4.00;;;;;;;11.70;57.66;102942.47;5091105;28;20028;-79
2023/04/04 07:12:47;;;;;;;8.20;3.80;;;;;;;12.20;57.14;102941.59;5103350;28;20052;-78
2023/04/04 07:15:12;;;;;;;11.23;4.03;;;;;;;12.34;55.33;102949.25;5103712;28;20039;-79
2023/04/04 07:17:39;;;;;;;8.90;4.03;;;;;;;11.41;55.81;102951.31;5089386;28;20051;-81
2023/04/04 07:20:06;;;;;;;10.20;4.60;;;;;;;10.93;58.72;102949.22;5087514;28;20345;-79
2023/04/04 07:22:31;;;;;;;7.63;4.07;;;;;;;10.55;59.43;102949.81;5088598;28;20278;-80
2023/04/04 07:24:57;;;;;;;13.32;3.78;;;;;;;9.85;62.91;102949.31;5087241;28;20032;-80
2023/04/04 07:27:22;;;;;;;9.63;4.30;;;;;;;10.57;63.32;102955.94;5087157;28;20064;-82
2023/04/04 07:29:47;;;;;;;8.80;4.07;;;;;;;11.88;59.89;102952.63;5083035;28;20021;-81
2023/04/04 07:32:13;;;;;;;9.95;3.72;;;;;;;12.59;55.72;102955.09;5082111;28;20025;-81
2023/04/04 07:34:38;;;;;;;9.57;4.13;;;;;;;12.77;57.36;102956.06;5081031;28;20025;-81
2023/04/04 07:37:03;;;;;;;1057.45;144.05;;;;;;;14.25;52.23;102954.25;5080929;28;20724;-80
2023/04/04 07:39:29;;;;;;;331.60;32.97;;;;;;;14.27;52.58;102952.25;5080921;28;20361;-83
2023/04/04 07:41:54;;;;;;;34.78;6.18;;;;;;;15.31;48.73;102967.75;5081041;28;20032;-82
2023/04/04 07:44:20;;;;;;;18.27;4.28;;;;;;;15.91;45.36;102968.72;5082111;28;20675;-81
2023/04/04 07:46:45;;;;;;;631.35;65.47;;;;;;;15.96;44.57;102961.78;5085750;28;20036;-81
2023/04/04 07:49:11;;;;;;;19.92;4.70;;;;;;;15.12;43.32;102962.59;5086299;28;20040;-81
2023/04/04 07:51:37;;;;;;;11.75;4.15;;;;;;;13.88;43.78;102956.22;5085505;28;20602;-80
2023/04/04 07:54:02;;;;;;;11.43;4.07;;;;;;;14.50;44.74;102951.75;5097032;28;20065;-82
2023/04/04 07:56:28;;;;;;;10.18;3.80;;;;;;;14.68;45.11;102951.75;5080487;28;20036;-80
2023/04/04 07:58:53;;;;;;;5.75;3.53;;;;;;;15.66;43.01;102946.03;5079631;28;20047;-80
2023/04/04 08:01:19;;;;;;;14.15;4.00;;;;;;;16.51;41.19;102943.16;5079276;28;20032;-81
2023/04/04 08:03:44;;;;;;;7.75;3.90;;;;;;;17.14;40.10;102945.16;5079725;28;20125;-81
2023/04/04 08:06:10;;;;;;;10.25;4.55;;;;;;;17.84;36.23;102944.38;5080413;28;20025;-81
2023/04/04 08:08:35;;;;;;;6.50;3.55;;;;;;;17.02;37.08;102946.53;5079769;28;20036;-80
2023/04/04 08:11:01;;;;;;;7.30;3.67;;;;;;;15.46;38.57;102935.47;5080506;28;20017;-81
2023/04/04 08:13:26;;;;;;;5.35;3.13;;;;;;;15.82;38.28;102935.25;5079865;28;20024;-81
2023/04/04 08:15:51;;;;;;;7.88;3.72;;;;;;;17.80;36.37;102936.72;5079425;28;20032;-81
2023/04/04 08:18:17;;;;;;;1989.72;186.15;;;;;;;18.32;34.63;102941.50;5078127;28;20035;-81
2023/04/04 08:20:42;;;;;;;7.03;3.50;;;;;;;17.83;35.34;102941.84;5079229;28;20025;-81
2023/04/04 08:23:08;;;;;;;7.80;3.50;;;;;;;18.15;35.24;102936.19;5078291;28;20051;-81
2023/04/04 08:25:34;;;;;;;6.25;3.22;;;;;;;18.65;33.41;102939.34;5077532;28;20040;-80
2023/04/04 08:27:59;;;;;;;5.55;3.13;;;;;;;17.80;35.05;102939.47;5076577;28;20139;-80
2023/04/04 08:30:25;;;;;;;9.55;3.08;;;;;;;18.72;32.74;102936.72;5078861;28;20194;-80
2023/04/04 08:32:50;;;;;;;6.57;3.10;;;;;;;18.51;33.22;102932.84;5078072;28;20139;-81
2023/04/04 08:35:15;;;;;;;13.65;2.80;;;;;;;18.47;29.74;102928.78;5079128;28;20154;-81
2023/04/04 08:37:47;;;;;;;4.20;2.00;;;;;;;18.35;30.03;102931.09;5078979;28;20060;-81
2023/04/04 08:40:13;;;;;;;7.15;2.20;;;;;;;17.48;28.00;102935.84;5079279;28;20025;-80
2023/04/04 08:42:40;;;;;;;4.85;2.45;;;;;;;17.86;27.22;102939.59;5078288;28;20025;-81
2023/04/04 08:45:08;;;;;;;9.02;2.55;;;;;;;18.42;28.34;102928.47;5077333;28;20029;-80
2023/04/04 08:47:34;;;;;;;4.18;2.30;;;;;;;19.00;28.30;102931.53;5077797;28;20141;-79
2023/04/04 08:50:03;;;;;;;4.97;1.97;;;;;;;19.19;26.71;102939.16;5077723;28;20029;-79
2023/04/04 08:52:30;;;;;;;5.82;2.45;;;;;;;19.42;28.41;102936.31;5076512;28;20051;-80
2023/04/04 08:54:56;;;;;;;5.55;2.10;;;;;;;18.40;26.27;102938.72;5078165;28;20335;-80
2023/04/04 08:57:22;;;;;;;3.55;1.95;;;;;;;19.59;25.81;102928.78;5077467;28;20035;-80
2023/04/04 08:59:48;;;;;;;3.35;2.17;;;;;;;19.48;26.00;102919.19;5077916;28;20028;-81
2023/04/04 09:02:16;;;;;;;3.78;2.03;;;;;;;19.85;25.50;102921.94;5077775;28;20017;-81
2023/04/04 09:04:43;;;;;;;4.53;2.03;;;;;;;19.78;26.01;102927.34;5076281;28;20025;-80
2023/04/04 09:07:08;;;;;;;5.22;2.25;;;;;;;19.46;27.46;102929.47;5077485;28;20069;-80
2023/04/04 09:09:36;;;;;;;5.22;1.65;;;;;;;20.11;25.95;102924.13;5075903;28;20109;-80
2023/04/04 09:12:02;;;;;;;3.90;1.85;;;;;;;20.32;24.81;102924.09;5076601;28;20076;-80
2023/04/04 09:14:29;;;;;;;752.33;71.47;;;;;;;20.31;25.54;102922.44;5077600;28;20090;-80
2023/04/04 09:16:55;;;;;;;465.65;45.25;;;;;;;20.25;24.85;102923.22;5077136;28;20025;-82
2023/04/04 09:19:20;;;;;;;499.02;48.55;;;;;;;19.49;25.88;102923.59;5075575;28;20424;-80
2023/04/04 09:21:47;;;;;;;922.83;116.15;;;;;;;19.02;26.60;102924.84;5077415;28;20064;-81
2023/04/04 09:24:13;;;;;;;1262.55;142.35;;;;;;;19.16;27.14;102925.03;5077687;28;20024;-78
2023/04/04 09:26:52;;;;;;;1999.90;286.15;;;;;;;18.90;27.50;102925.50;5077706;28;20041;-80
2023/04/04 09:29:19;;;;;;;1999.90;275.88;;;;;;;18.40;28.92;102919.63;5078261;28;20025;-80
2023/04/04 09:31:45;;;;;;;1622.10;159.15;;;;;;;19.04;27.72;102916.50;5086754;28;20033;-80
2023/04/04 09:34:13;;;;;;;70.70;5.22;;;;;;;18.79;27.89;102922.19;5081010;28;20028;-80
2023/04/04 09:36:39;;;;;;;1999.90;424.92;;;;;;;18.97;28.17;102921.84;5076793;28;20114;-80
2023/04/04 09:39:05;;;;;;;1990.53;201.55;;;;;;;18.36;27.69;102921.88;5076586;28;20037;-79
2023/04/04 09:41:31;;;;;;;1999.90;339.45;;;;;;;18.06;29.05;102918.22;5077964;28;20480;-81
2023/04/04 09:43:56;;;;;;;1929.57;203.43;;;;;;;18.18;28.96;102921.34;5077486;28;20056;-78
2023/04/04 09:46:24;;;;;;;1366.47;113.00;;;;;;;18.65;27.57;102926.56;5076849;28;20040;-80
2023/04/04 09:48:50;;;;;;;414.85;32.35;;;;;;;18.18;28.71;102924.06;5077170;28;20020;-80
2023/04/04 09:51:15;;;;;;;210.18;17.95;;;;;;;18.48;27.76;102918.72;5077212;28;20024;-79
2023/04/04 09:53:40;;;;;;;1999.90;229.57;;;;;;;18.36;29.43;102910.13;5069147;28;20028;-79
2023/04/04 09:56:06;;;;;;;67.40;7.28;;;;;;;18.19;28.00;102923.91;5065921;28;20029;-80
2023/04/04 09:58:35;;;;;;;81.22;6.22;;;;;;;17.40;30.07;102916.81;5056380;28;20036;-80
2023/04/04 10:01:01;;;;;;;12.45;2.35;;;;;;;17.46;28.77;102921.56;5071417;28;20024;-79
2023/04/04 10:03:27;;;;;;;246.10;13.23;;;;;;;17.56;29.55;102911.28;5087316;28;20037;-79
2023/04/04 10:05:59;;;;;;;47.50;17.80;;;;;;;17.38;29.46;102913.41;5077652;28;20029;-78
2023/04/04 10:08:26;;;;;;;19.63;3.17;;;;;;;17.29;28.83;102908.00;5068219;28;20035;-81
2023/04/04 10:10:58;;;;;;;72.18;6.38;;;;;;;16.36;29.46;102907.69;5057374;28;20086;-79
2023/04/04 10:13:27;;;;;;;993.75;96.40;;;;;;;16.18;28.82;102915.97;5054646;28;20466;-80
2023/04/04 10:15:53;;;;;;;869.30;78.28;;;;;;;15.78;30.19;102909.47;5054869;28;20029;-80
2023/04/04 10:18:21;;;;;;;1381.80;128.68;;;;;;;16.29;30.28;102904.78;5056944;28;20465;-79
2023/04/04 10:20:48;;;;;;;85.30;7.35;;;;;;;15.27;30.03;102905.84;5056136;28;20116;-80
2023/04/04 10:23:15;;;;;;;10.85;2.88;;;;;;;14.31;30.93;102904.00;5056122;28;20074;-80
2023/04/04 10:25:40;;;;;;;151.45;12.02;;;;;;;13.97;31.49;102914.69;5063276;28;20040;-81
2023/04/04 10:28:06;;;;;;;1999.90;376.38;;;;;;;13.86;33.18;102895.97;5060155;28;20041;-81
2023/04/04 10:30:39;;;;;;;345.48;31.40;;;;;;;15.03;31.61;102903.88;5056893;28;20024;-79
2023/04/04 10:33:14;;;;;;;1999.90;310.63;;;;;;;14.89;32.72;102897.19;5057389;28;20028;-79
2023/04/04 10:35:44;;;;;;;1999.90;384.40;;;;;;;14.57;33.69;102901.38;5055492;28;20051;-78
2023/04/04 10:38:11;;;;;;;1976.18;204.38;;;;;;;14.68;33.79;102892.97;5054473;28;20141;-80
2023/04/04 10:40:37;;;;;;;1999.90;766.00;;;;;;;14.70;35.18;102882.84;5056951;28;20126;-79
2023/04/04 10:43:04;;;;;;;1839.80;199.93;;;;;;;14.91;32.77;102889.75;5055886;28;20033;-79
2023/04/04 10:45:30;;;;;;;97.40;11.23;;;;;;;14.59;33.35;102883.13;5056555;28;20025;-80
2023/04/04 10:47:56;;;;;;;29.88;3.65;;;;;;;14.46;33.34;102888.06;5058042;28;20033;-79
2023/04/04 10:50:21;;;;;;;110.88;8.00;;;;;;;14.67;34.16;102876.91;5054142;28;20025;-81
2023/04/04 10:52:47;;;;;;;34.58;3.85;;;;;;;14.92;33.37;102875.16;5056070;28;20041;-78
2023/04/04 10:55:14;;;;;;;130.23;9.75;;;;;;;14.94;33.02;102862.31;5056195;28;20033;-79
2023/04/04 10:57:41;;;;;;;9.73;2.88;;;;;;;14.77;33.77;102860.50;5057844;28;20025;-79
2023/04/04 11:00:12;;;;;;;14.25;2.67;;;;;;;14.56;35.31;102864.47;5057286;28;20104;-79
2023/04/04 11:02:44;;;;;;;7.47;2.50;;;;;;;14.62;34.04;102863.81;5056869;28;20094;-79
2023/04/04 11:05:25;;;;;;;10.00;2.83;;;;;;;13.94;34.46;102852.75;5057679;28;20025;-80
2023/04/04 11:07:55;;;;;;;9.52;2.58;;;;;;;14.59;33.39;102858.72;5053842;28;20079;-79
2023/04/04 11:10:24;;;;;;;5.78;2.72;;;;;;;15.14;33.90;102857.50;5056157;28;20369;-78
2023/04/04 11:12:55;;;;;;;12.48;2.63;;;;;;;16.47;32.37;102855.69;5055541;28;20036;-77
2023/04/04 11:15:24;;;;;;;8.23;2.70;;;;;;;16.79;30.63;102854.78;5053548;28;20108;-77